Terminal Aerodrome Forecast
Issued by NWS Los Angeles, CA

Home | Current Version | Previous Version | Text Only | Print | Product List | Glossary On
Versions: 1 2 3 4 5 6 7 8 9 10 11 12 13 14 15 16 17 18 19 20 21 22 23 24 25 26 27 28 29 30 31 32 33 34 35 36 37 38 39 40 41 42 43 44 45 46 47 48 49 50
000
FTUS46 KLOX 161313 AAB
TAFSMX
TAF AMD
KSMX 161313Z 1613/1712 VRB03KT 6SM BR OVC005
     FM161700 30005KT 5SM BR OVC009
     FM161900 30006KT P6SM OVC012
     FM162200 30010KT P6SM SKC
     FM170300 30008KT P6SM OVC008
     FM170500 VRB03KT P6SM OVC006
     FM170800 VRB03KT 5SM BR OVC004=

USA.gov is the U.S. government's official web portal to all federal, state and local government web resources and services.